Time;durP1;ratioP1;P1;durP2;ratioP2;P2;SDS_P1;SDS_P2;PMS_P1;PMS_P2;Temp;Humidity;BMP_temperature;BMP_pressure;BME280_temperature;BME280_humidity;BME280_pressure;Samples;Min_cycle;Max_cycle;Signal;HPM_P1;HPM_P2
2022/01/09 00:00:01;;;;;;;;;2.50;2.50;;;;;10.31;59.87;99432.50;2086927;28;45597;-68
2022/01/09 00:01:02;;;;;;;;;2.00;2.00;;;;;10.31;59.86;99435.16;2086471;28;46603;-68
2022/01/09 00:02:03;;;;;;;;;3.00;3.00;;;;;10.30;59.74;99450.22;2086402;28;48171;-68
2022/01/09 00:03:04;;;;;;;;;2.33;1.33;;;;;10.30;59.93;99447.56;2077118;28;45862;-69
2022/01/09 00:04:04;;;;;;;;;1.50;1.50;;;;;10.30;59.74;99447.56;2086912;28;47306;-68
2022/01/09 00:05:06;;;;;;;;;1.00;1.00;;;;;10.29;59.93;99456.44;2086804;28;46297;-68
2022/01/09 00:06:08;;;;;;;;;1.75;1.75;;;;;10.30;59.98;99459.94;2086923;28;46591;-67
2022/01/09 00:07:09;;;;;;;;;4.00;2.75;;;;;10.30;60.02;99467.91;2094898;28;45611;-68
2022/01/09 00:08:09;;;;;;;;;4.00;1.00;;;;;10.29;59.73;99466.16;2085889;28;45907;-67
2022/01/09 00:09:11;;;;;;;;;1.33;1.33;;;;;10.29;59.85;99474.09;2086546;28;45564;-67
2022/01/09 00:10:12;;;;;;;;;1.25;1.25;;;;;10.30;60.01;99470.56;2087190;28;46596;-68
2022/01/09 00:11:17;;;;;;;;;2.00;1.00;;;;;10.28;59.42;99475.88;2086528;28;47033;-68
2022/01/09 00:12:17;;;;;;;;;2.00;2.00;;;;;10.29;60.03;99466.16;2093818;28;45587;-68
2022/01/09 00:13:18;;;;;;;;;3.33;1.00;;;;;10.29;59.80;99482.94;2095068;28;47491;-68
2022/01/09 00:14:19;;;;;;;;;3.33;2.00;;;;;10.29;59.97;99469.69;2095376;28;45717;-67
2022/01/09 00:15:19;;;;;;;;;1.33;1.00;;;;;10.30;59.90;99475.84;2094966;28;48096;-68
2022/01/09 00:16:23;;;;;;;;;3.00;1.67;;;;;10.29;59.89;99485.59;2095764;28;46001;-67
2022/01/09 00:17:23;;;;;;;;;1.75;1.75;;;;;10.29;59.52;99482.94;2101128;27;45728;-68
2022/01/09 00:18:24;;;;;;;;;1.00;1.00;;;;;10.28;59.59;99473.25;2105216;27;46092;-68
2022/01/09 00:19:24;;;;;;;;;1.67;1.67;;;;;10.28;59.61;99475.88;2103995;27;46669;-69
2022/01/09 00:20:25;;;;;;;;;5.00;4.00;;;;;10.27;59.71;99482.13;2104029;27;45420;-68
2022/01/09 00:21:26;;;;;;;;;0.00;0.00;;;;;10.25;59.51;99478.69;2104226;27;49006;-68
2022/01/09 00:22:36;;;;;;;;;3.00;2.00;;;;;10.26;59.74;99487.50;2103204;27;46716;-67
2022/01/09 00:23:37;;;;;;;;;6.50;4.00;;;;;10.26;59.57;99485.69;2102856;27;47109;-69
2022/01/09 00:24:37;;;;;;;;;1.33;1.33;;;;;10.26;59.56;99495.44;2104370;27;45767;-68
2022/01/09 00:25:38;;;;;;;;;3.00;1.67;;;;;10.25;59.53;99499.03;2104061;27;47294;-68
2022/01/09 00:26:38;;;;;;;;;2.67;2.67;;;;;10.25;59.52;99496.38;2104039;27;45893;-67
2022/01/09 00:27:40;;;;;;;;;4.00;3.00;;;;;10.24;59.64;99505.25;2102758;27;47740;-67
2022/01/09 00:28:40;;;;;;;;;3.25;3.25;;;;;10.23;59.26;99492.94;2104205;27;45529;-68
2022/01/09 00:29:41;;;;;;;;;2.00;2.00;;;;;10.21;59.35;99502.69;2094911;28;45451;-68
2022/01/09 00:30:41;;;;;;;;;2.67;2.67;;;;;10.20;58.96;99508.94;2095207;27;45417;-68
2022/01/09 00:31:42;;;;;;;;;2.33;1.33;;;;;10.20;59.30;99506.28;2103306;27;46996;-67
2022/01/09 00:32:43;;;;;;;;;2.00;2.00;;;;;10.19;59.52;99510.72;2103062;27;45333;-68
2022/01/09 00:33:43;;;;;;;;;2.00;2.00;;;;;10.19;59.64;99510.72;2104058;27;46434;-68
2022/01/09 00:34:44;;;;;;;;;3.00;3.00;;;;;10.18;59.23;99514.28;2104036;27;46869;-67
2022/01/09 00:35:44;;;;;;;;;3.00;3.00;;;;;10.17;59.58;99522.31;2094909;27;48058;-67
2022/01/09 00:36:45;;;;;;;;;2.00;1.67;;;;;10.17;59.44;99520.53;2095003;28;47037;-67
2022/01/09 00:37:46;;;;;;;;;1.33;1.33;;;;;10.17;59.17;99524.97;2094357;28;46793;-67
2022/01/09 00:38:46;;;;;;;;;0.00;0.00;;;;;10.15;59.31;99519.69;2086650;28;46856;-68
2022/01/09 00:39:47;;;;;;;;;3.00;1.33;;;;;10.15;59.48;99521.47;2094534;28;47038;-68
2022/01/09 00:40:47;;;;;;;;;5.67;4.00;;;;;10.15;59.62;99529.44;2095238;28;45490;-67
2022/01/09 00:41:48;;;;;;;;;3.33;2.00;;;;;10.14;59.75;99517.97;2093174;27;45372;-69
2022/01/09 00:42:49;;;;;;;;;5.00;2.00;;;;;10.14;59.47;99525.91;2102849;27;46163;-68
2022/01/09 00:43:50;;;;;;;;;1.00;1.00;;;;;10.13;59.30;99532.16;2094877;28;45400;-68
2022/01/09 00:44:51;;;;;;;;;5.50;3.00;;;;;10.13;59.45;99529.50;2095172;27;48310;-67
2022/01/09 00:45:52;;;;;;;;;3.33;2.00;;;;;10.13;59.47;99534.78;2094847;28;45684;-67
2022/01/09 00:46:56;;;;;;;;;2.33;2.00;;;;;10.12;59.22;99527.78;2103723;27;45839;-67
2022/01/09 00:47:57;;;;;;;;;3.00;3.00;;;;;10.11;59.31;99536.66;2102642;27;46440;-67
2022/01/09 00:48:57;;;;;;;;;1.00;1.00;;;;;10.10;59.59;99540.22;2104180;27;46756;-67
2022/01/09 00:49:59;;;;;;;;;4.67;4.67;;;;;10.11;59.50;99546.38;2095138;27;45488;-69
2022/01/09 00:50:59;;;;;;;;;3.20;3.20;;;;;10.10;59.69;99542.88;2095248;28;46675;-67
2022/01/09 00:52:00;;;;;;;;;2.67;1.33;;;;;10.09;59.65;99554.41;2094711;27;46954;-68
2022/01/09 00:53:00;;;;;;;;;1.00;1.00;;;;;10.10;59.67;99552.63;2095011;27;47723;-68
2022/01/09 00:54:01;;;;;;;;;4.33;4.33;;;;;10.10;59.73;99555.28;2095799;27;46154;-69
2022/01/09 00:55:03;;;;;;;;;2.33;2.00;;;;;10.09;59.49;99559.72;2094731;28;46200;-69
2022/01/09 00:56:06;;;;;;;;;2.75;2.00;;;;;10.09;59.57;99561.50;2095031;27;45424;-67
2022/01/09 00:57:07;;;;;;;;;1.75;1.75;;;;;10.08;59.68;99560.63;2095014;27;45496;-68
2022/01/09 00:58:07;;;;;;;;;3.67;3.00;;;;;10.09;59.89;99564.16;2094461;28;48147;-68
2022/01/09 00:59:08;;;;;;;;;2.00;2.00;;;;;10.09;59.64;99569.44;2096783;27;46980;-69
2022/01/09 01:00:09;;;;;;;;;3.33;3.33;;;;;10.10;59.52;99565.88;2103249;27;46775;-69
2022/01/09 01:01:10;;;;;;;;;2.25;1.50;;;;;10.09;59.86;99574.75;2103221;27;46621;-68
2022/01/09 01:02:10;;;;;;;;;2.33;2.33;;;;;10.08;59.58;99571.22;2103139;27;46165;-68
2022/01/09 01:03:11;;;;;;;;;2.67;2.67;;;;;10.08;59.66;99576.53;2103211;27;45496;-68
2022/01/09 01:04:12;;;;;;;;;5.00;4.00;;;;;10.08;59.41;99570.38;2103990;27;45409;-68
2022/01/09 01:05:12;;;;;;;;;3.00;3.00;;;;;10.08;59.26;99583.63;2103625;27;47111;-67
2022/01/09 01:06:13;;;;;;;;;2.00;2.00;;;;;10.07;59.45;99585.41;2103969;27;47507;-69
2022/01/09 01:07:13;;;;;;;;;2.00;2.00;;;;;10.08;59.43;99589.78;2102511;27;47863;-68
2022/01/09 01:08:14;;;;;;;;;3.00;2.00;;;;;10.08;59.48;99594.22;2103291;27;46364;-69
2022/01/09 01:09:15;;;;;;;;;3.67;2.00;;;;;10.07;59.26;99601.31;2103471;27;48581;-69
2022/01/09 01:10:16;;;;;;;;;2.00;2.00;;;;;10.08;59.27;99602.19;2101801;27;45591;-69
2022/01/09 01:11:16;;;;;;;;;5.00;2.67;;;;;10.06;59.11;99596.06;2103760;27;45460;-67
2022/01/09 01:12:17;;;;;;;;;3.00;3.00;;;;;10.07;58.97;99613.72;2094547;27;46294;-68
2022/01/09 01:13:18;;;;;;;;;3.00;2.00;;;;;10.07;59.12;99606.63;2094593;27;46111;-67
2022/01/09 01:14:22;;;;;;;;;3.67;1.33;;;;;10.06;59.15;99607.53;2103991;27;45396;-67
2022/01/09 01:15:23;;;;;;;;;2.75;1.50;;;;;10.07;59.25;99614.56;2103782;27;48231;-68
2022/01/09 01:16:24;;;;;;;;;3.67;2.67;;;;;10.07;58.75;99613.72;2104060;27;45392;-68
2022/01/09 01:17:24;;;;;;;;;2.00;2.00;;;;;10.06;58.80;99625.25;2094469;27;46113;-68
2022/01/09 01:18:25;;;;;;;;;3.00;1.00;;;;;10.06;58.60;99631.41;2094780;28;47076;-68
2022/01/09 01:19:26;;;;;;;;;2.00;2.00;;;;;10.05;58.33;99628.81;2103281;27;46817;-69
2022/01/09 01:20:28;;;;;;;;;1.67;1.67;;;;;10.02;58.46;99635.94;2103396;27;45776;-67
2022/01/09 01:21:30;;;;;;;;;3.75;2.75;;;;;10.02;58.65;99635.06;2103657;27;45802;-68
2022/01/09 01:22:31;;;;;;;;;2.00;2.00;;;;;10.00;58.38;99640.44;2094266;27;48111;-69
2022/01/09 01:23:32;;;;;;;;;1.25;1.25;;;;;10.00;58.50;99631.59;2086507;28;45508;-69
2022/01/09 01:24:36;;;;;;;;;2.67;2.33;;;;;9.98;58.27;99631.66;2086539;28;48389;-68
2022/01/09 01:25:36;;;;;;;;;1.75;1.25;;;;;9.97;58.51;99637.91;2078488;28;45609;-68
2022/01/09 01:26:37;;;;;;;;;1.00;1.00;;;;;9.96;58.38;99630.88;2078288;28;48188;-68
2022/01/09 01:27:38;;;;;;;;;3.00;1.00;;;;;9.96;58.43;99644.13;2094407;27;45822;-68
2022/01/09 01:28:38;;;;;;;;;2.00;1.00;;;;;9.95;58.45;99645.03;2103346;27;45405;-68
2022/01/09 01:29:39;;;;;;;;;1.67;1.00;;;;;9.95;58.70;99649.47;2103536;27;45564;-67
2022/01/09 01:30:39;;;;;;;;;3.00;2.00;;;;;9.94;58.46;99648.63;2095031;28;45829;-67
2022/01/09 01:31:40;;;;;;;;;2.33;2.33;;;;;9.94;58.65;99650.41;2086461;28;47912;-68
2022/01/09 01:32:42;;;;;;;;;3.00;3.00;;;;;9.94;58.70;99645.09;2094279;27;48482;-67
2022/01/09 01:33:43;;;;;;;;;4.00;3.00;;;;;9.94;58.63;99658.34;2086290;28;45682;-69
2022/01/09 01:34:44;;;;;;;;;2.00;2.00;;;;;9.93;58.60;99665.44;2094843;27;47296;-67
2022/01/09 01:35:44;;;;;;;;;2.00;1.00;;;;;9.92;58.48;99660.19;2094474;27;46820;-67
2022/01/09 01:36:45;;;;;;;;;1.33;1.00;;;;;9.91;58.40;99669.03;2103778;27;46173;-68
2022/01/09 01:37:45;;;;;;;;;2.67;2.00;;;;;9.89;58.82;99677.03;2094299;27;47247;-68
2022/01/09 01:38:46;;;;;;;;;3.67;2.67;;;;;9.89;58.74;99676.19;2094889;28;45690;-67
2022/01/09 01:39:46;;;;;;;;;1.00;1.00;;;;;9.89;58.78;99687.66;2103117;27;47466;-68
2022/01/09 01:40:47;;;;;;;;;2.00;1.00;;;;;9.88;58.67;99693.00;2094892;28;46306;-68
2022/01/09 01:41:48;;;;;;;;;2.00;2.00;;;;;9.87;58.70;99692.13;2094725;28;47315;-67
2022/01/09 01:42:49;;;;;;;;;3.25;1.75;;;;;9.86;58.71;99687.75;2093946;28;46153;-67
2022/01/09 01:43:49;;;;;;;;;0.33;0.00;;;;;9.86;58.63;99706.31;2095580;27;46918;-68
2022/01/09 01:44:51;;;;;;;;;2.00;2.00;;;;;9.87;58.64;99693.91;2094751;28;45779;-68
2022/01/09 01:45:52;;;;;;;;;0.50;0.00;;;;;9.87;58.75;99707.19;2095107;27;46676;-68
2022/01/09 01:46:52;;;;;;;;;3.00;2.00;;;;;9.84;58.77;99700.19;2103786;27;47619;-68
2022/01/09 01:47:53;;;;;;;;;3.67;2.00;;;;;9.84;58.59;99710.81;2094637;27;48230;-67
2022/01/09 01:48:54;;;;;;;;;1.00;1.00;;;;;9.84;58.94;99710.81;2094901;27;45458;-67
2022/01/09 01:49:55;;;;;;;;;1.67;1.00;;;;;9.84;58.98;99712.59;2103701;27;47676;-68
2022/01/09 01:50:55;;;;;;;;;2.00;2.00;;;;;9.83;58.79;99737.34;2103971;27;48480;-67
2022/01/09 01:51:56;;;;;;;;;2.33;2.00;;;;;9.82;59.03;99733.84;2094709;27;46890;-68
2022/01/09 01:52:58;;;;;;;;;4.00;2.67;;;;;9.84;59.26;99731.13;2096049;27;45389;-67
2022/01/09 01:53:59;;;;;;;;;1.75;1.00;;;;;9.84;59.60;99721.41;2087557;28;46913;-67
2022/01/09 01:55:00;;;;;;;;;3.00;1.00;;;;;9.83;59.49;99735.56;2096270;27;45387;-69
2022/01/09 01:56:01;;;;;;;;;3.33;0.00;;;;;9.84;60.00;99734.66;2105215;27;48372;-67
2022/01/09 01:57:03;;;;;;;;;0.75;0.75;;;;;9.84;59.66;99758.50;2095244;27;45490;-68
2022/01/09 01:58:06;;;;;;;;;1.00;0.75;;;;;9.82;59.79;99764.78;2095735;27;46209;-68
2022/01/09 01:59:07;;;;;;;;;1.00;1.00;;;;;9.81;59.71;99749.78;2095967;27;45673;-68
2022/01/09 02:00:11;;;;;;;;;1.00;1.00;;;;;9.80;60.29;99740.13;2095692;27;47067;-67
2022/01/09 02:01:11;;;;;;;;;1.25;1.25;;;;;9.78;60.23;99750.75;2095936;28;46096;-68
2022/01/09 02:02:12;;;;;;;;;1.00;1.00;;;;;9.77;60.21;99737.56;2095638;27;46990;-68
2022/01/09 02:03:13;;;;;;;;;1.00;1.00;;;;;9.77;60.12;99753.44;2104597;27;47729;-68
2022/01/09 02:04:13;;;;;;;;;1.00;1.00;;;;;9.75;60.17;99758.81;2096343;28;45657;-67
2022/01/09 02:05:14;;;;;;;;;1.33;1.00;;;;;9.72;60.19;99762.44;2095692;27;46992;-68
2022/01/09 02:06:15;;;;;;;;;3.00;1.00;;;;;9.71;60.43;99752.75;2096294;27;45821;-68
2022/01/09 02:07:15;;;;;;;;;4.50;1.75;;;;;9.70;60.56;99750.16;2096107;27;48981;-68
2022/01/09 02:08:16;;;;;;;;;1.00;0.33;;;;;9.69;60.53;99754.59;2102681;27;46011;-68
2022/01/09 02:09:17;;;;;;;;;1.00;1.00;;;;;9.68;60.65;99752.00;2104888;27;45611;-68
2022/01/09 02:10:18;;;;;;;;;1.00;1.00;;;;;9.67;60.30;99742.31;2105170;27;46717;-68
2022/01/09 02:11:19;;;;;;;;;2.00;2.00;;;;;9.65;60.36;99763.53;2095953;28;46121;-68
2022/01/09 02:12:19;;;;;;;;;3.33;2.00;;;;;9.64;60.47;99742.41;2096078;27;47714;-68
2022/01/09 02:13:20;;;;;;;;;3.00;2.00;;;;;9.62;60.54;99761.00;2104786;27;45593;-68
2022/01/09 02:14:21;;;;;;;;;3.00;1.00;;;;;9.62;60.48;99771.59;2104679;27;48170;-67
2022/01/09 02:15:26;;;;;;;;;2.67;1.33;;;;;9.62;60.38;99762.78;2104868;27;45770;-67
2022/01/09 02:16:28;;;;;;;;;1.00;1.00;;;;;9.61;60.74;99769.00;2105147;27;47307;-68
2022/01/09 02:17:29;;;;;;;;;1.00;1.00;;;;;9.60;60.63;99761.97;2103615;27;47124;-68
2022/01/09 02:18:29;;;;;;;;;2.00;1.00;;;;;9.60;60.92;99770.78;2096154;27;46342;-68
2022/01/09 02:19:30;;;;;;;;;6.33;2.00;;;;;9.61;60.71;99769.00;2095955;28;45833;-69
2022/01/09 02:20:31;;;;;;;;;3.67;2.00;;;;;9.61;60.75;99766.34;2104176;27;47311;-68
2022/01/09 02:21:32;;;;;;;;;2.00;2.00;;;;;9.61;60.78;99782.25;2104604;27;47428;-68
2022/01/09 02:22:34;;;;;;;;;2.00;2.00;;;;;9.61;60.74;99792.84;2104232;27;46469;-68
2022/01/09 02:23:37;;;;;;;;;2.50;2.00;;;;;9.62;60.82;99789.25;2095644;27;48659;-68
2022/01/09 02:24:37;;;;;;;;;2.50;1.00;;;;;9.62;60.53;99803.38;2096308;27;48515;-68
2022/01/09 02:25:40;;;;;;;;;4.33;1.00;;;;;9.61;60.57;99799.00;2105023;27;46616;-67
2022/01/09 02:26:41;;;;;;;;;1.25;1.25;;;;;9.62;60.49;99800.72;2105100;27;46524;-68
2022/01/09 02:27:41;;;;;;;;;2.00;1.00;;;;;9.61;60.66;99784.88;2095469;27;45511;-68
2022/01/09 02:28:42;;;;;;;;;0.33;0.33;;;;;9.61;60.84;99783.09;2096071;27;45574;-69
2022/01/09 02:29:47;;;;;;;;;1.00;1.00;;;;;9.61;60.71;99795.47;2095365;28;47189;-68
2022/01/09 02:30:49;;;;;;;;;0.25;0.25;;;;;9.60;60.41;99802.56;2087993;28;45713;-68
2022/01/09 02:31:50;;;;;;;;;1.00;1.00;;;;;9.59;60.50;99789.38;2095900;28;47080;-68
2022/01/09 02:32:50;;;;;;;;;1.00;1.00;;;;;9.58;60.54;99795.59;2095717;27;45721;-68
2022/01/09 02:33:51;;;;;;;;;1.00;0.00;;;;;9.58;60.56;99795.59;2095846;27;46526;-68
2022/01/09 02:34:51;;;;;;;;;1.00;1.00;;;;;9.57;60.41;99801.81;2096154;27;48002;-68
2022/01/09 02:35:52;;;;;;;;;2.67;2.00;;;;;9.56;60.76;99808.88;2095400;27;46309;-68
2022/01/09 02:36:52;;;;;;;;;3.67;3.67;;;;;9.56;60.76;99800.94;2088543;28;47356;-68
2022/01/09 02:37:53;;;;;;;;;3.00;2.00;;;;;9.56;60.83;99798.28;2092509;27;47117;-68
2022/01/09 02:38:54;;;;;;;;;2.00;1.50;;;;;9.56;60.44;99794.78;2096090;28;48208;-68
2022/01/09 02:39:54;;;;;;;;;2.33;1.33;;;;;9.56;60.64;99779.75;2095840;28;47754;-68
2022/01/09 02:40:55;;;;;;;;;2.00;1.00;;;;;9.56;60.54;99786.84;2105002;27;46097;-68
2022/01/09 02:41:55;;;;;;;;;1.00;0.00;;;;;9.56;60.59;99784.19;2104809;27;45774;-68
2022/01/09 02:42:56;;;;;;;;;0.00;0.00;;;;;9.57;60.42;99796.50;2103548;27;45173;-68
2022/01/09 02:43:57;;;;;;;;;1.33;1.33;;;;;9.57;60.47;99794.72;2095989;28;45785;-67
2022/01/09 02:44:58;;;;;;;;;1.00;1.00;;;;;9.57;60.00;99807.09;2095795;28;48316;-67
2022/01/09 02:47:06;;;;;;;;;1.00;1.00;;;;;9.56;60.28;99813.31;2104559;27;46596;-68
2022/01/09 02:48:09;;;;;;;;;0.75;0.75;;;;;9.56;60.27;99818.63;2095518;28;45559;-68
2022/01/09 02:49:10;;;;;;;;;0.00;0.00;;;;;9.56;60.34;99821.25;2096084;27;46691;-68
2022/01/09 02:50:27;;;;;;;;;0.00;0.00;;;;;9.57;60.27;99820.34;2104957;27;45475;-68
2022/01/09 02:51:27;;;;;;;;;1.00;1.00;;;;;9.56;60.28;99821.25;2104572;27;46998;-68
2022/01/09 02:52:36;;;;;;;;;0.00;0.00;;;;;9.55;59.84;99832.78;2104332;27;46555;-68
2022/01/09 02:53:38;;;;;;;;;0.00;0.00;;;;;9.54;60.04;99833.69;2103516;27;47680;-67
2022/01/09 02:55:58;;;;;;;;;0.25;0.25;;;;;9.53;60.13;99821.34;2098273;27;47263;-67
2022/01/09 02:56:58;;;;;;;;;1.33;1.33;;;;;9.52;60.02;99823.13;2104645;27;46609;-68
2022/01/09 02:58:00;;;;;;;;;1.00;1.00;;;;;9.51;60.20;99813.44;2094266;28;46959;-68
2022/01/09 02:59:01;;;;;;;;;1.75;0.25;;;;;9.51;60.07;99813.44;2095485;27;46221;-68
2022/01/09 03:00:04;;;;;;;;;0.00;0.00;;;;;9.51;60.03;99809.94;2087201;28;46714;-68
2022/01/09 03:01:07;;;;;;;;;0.00;0.00;;;;;9.50;60.22;99805.56;2087735;27;46968;-67
2022/01/09 03:02:07;;;;;;;;;0.75;0.75;;;;;9.50;60.15;99824.09;2103693;27;48474;-68
2022/01/09 03:03:09;;;;;;;;;0.00;0.00;;;;;9.49;60.17;99839.13;2103891;27;46362;-68
2022/01/09 03:04:10;;;;;;;;;0.00;0.00;;;;;9.50;59.81;99832.03;2104729;27;46103;-67
2022/01/09 03:05:11;;;;;;;;;0.33;0.00;;;;;9.49;59.88;99836.47;2103993;27;48478;-68
2022/01/09 03:06:12;;;;;;;;;0.00;0.00;;;;;9.47;60.08;99838.31;2103797;27;46779;-69
2022/01/09 03:07:12;;;;;;;;;1.33;1.33;;;;;9.47;60.17;99840.94;2103585;27;45576;-68
2022/01/09 03:08:13;;;;;;;;;1.00;1.00;;;;;9.46;60.14;99836.56;2104909;27;46333;-68
2022/01/09 03:09:13;;;;;;;;;0.00;0.00;;;;;9.46;60.10;99833.91;2104682;27;45731;-68
2022/01/09 03:10:17;;;;;;;;;1.00;1.00;;;;;9.46;60.21;99839.22;2096232;27;46453;-68
2022/01/09 03:11:18;;;;;;;;;1.00;1.00;;;;;9.45;59.92;99842.78;2095272;27;46404;-67
2022/01/09 03:12:19;;;;;;;;;0.67;0.67;;;;;9.43;60.17;99842.84;2103349;27;45992;-66
2022/01/09 03:13:20;;;;;;;;;1.50;1.00;;;;;9.42;60.00;99848.19;2104385;27;45985;-68
2022/01/09 03:14:20;;;;;;;;;3.67;1.00;;;;;9.40;60.18;99835.00;2095754;28;46219;-68
2022/01/09 03:15:22;;;;;;;;;1.00;0.67;;;;;9.41;60.32;99841.16;2095536;28;46895;-68
2022/01/09 03:16:22;;;;;;;;;1.75;0.00;;;;;9.40;60.25;99839.38;2095498;28;48425;-67
2022/01/09 03:17:23;;;;;;;;;2.00;1.00;;;;;9.40;60.19;99844.69;2095086;27;46704;-68
2022/01/09 03:18:23;;;;;;;;;1.00;1.00;;;;;9.40;60.11;99842.94;2095695;27;47223;-68
2022/01/09 03:19:24;;;;;;;;;0.33;0.33;;;;;9.40;60.33;99853.53;2095551;28;46343;-68
2022/01/09 03:20:26;;;;;;;;;1.00;1.00;;;;;9.38;60.25;99841.22;2095567;28;45886;-68
2022/01/09 03:21:27;;;;;;;;;1.00;1.00;;;;;9.37;60.19;99845.66;2095055;27;47413;-69
2022/01/09 03:22:27;;;;;;;;;1.00;0.00;;;;;9.37;60.28;99843.00;2102938;27;45653;-68
2022/01/09 03:23:28;;;;;;;;;2.00;0.00;;;;;9.37;60.53;99842.13;2095589;27;46501;-68
2022/01/09 03:24:28;;;;;;;;;0.67;0.00;;;;;9.38;60.23;99849.16;2095843;27;45872;-68
2022/01/09 03:25:29;;;;;;;;;1.00;1.00;;;;;9.37;60.37;99850.09;2104623;27;47152;-68
2022/01/09 03:26:29;;;;;;;;;2.00;1.00;;;;;9.37;60.27;99850.94;2104744;27;45384;-68
2022/01/09 03:27:30;;;;;;;;;3.00;2.33;;;;;9.37;60.23;99847.44;2103102;27;46524;-68
2022/01/09 03:28:30;;;;;;;;;0.00;0.00;;;;;9.37;60.31;99845.66;2104721;27;45928;-67
2022/01/09 03:29:31;;;;;;;;;1.00;1.00;;;;;9.36;60.49;99843.91;2095182;28;45356;-68
2022/01/09 03:30:32;;;;;;;;;1.00;1.00;;;;;9.37;60.56;99847.44;2095934;28;45836;-68
2022/01/09 03:31:32;;;;;;;;;1.67;1.00;;;;;9.37;60.38;99845.66;2095320;27;45499;-68
2022/01/09 03:32:33;;;;;;;;;1.00;1.00;;;;;9.37;60.21;99844.78;2095263;27;45723;-67
2022/01/09 03:33:33;;;;;;;;;1.00;1.00;;;;;9.38;60.32;99849.16;2104551;27;47349;-68
2022/01/09 03:34:35;;;;;;;;;1.67;1.00;;;;;9.39;60.11;99845.59;2104800;27;45486;-68
2022/01/09 03:35:35;;;;;;;;;0.00;0.00;;;;;9.37;60.39;99845.66;2104186;27;46899;-68
2022/01/09 03:36:36;;;;;;;;;1.00;1.00;;;;;9.39;60.29;99853.56;2095638;27;45771;-68
2022/01/09 03:37:37;;;;;;;;;2.00;1.00;;;;;9.40;60.56;99844.69;2094904;27;45515;-68
2022/01/09 03:38:37;;;;;;;;;2.00;0.00;;;;;9.41;60.21;99862.34;2104273;27;46436;-68
2022/01/09 03:39:38;;;;;;;;;2.00;0.33;;;;;9.40;60.22;99863.22;2104374;27;47567;-68
2022/01/09 03:40:39;;;;;;;;;3.33;2.33;;;;;9.41;60.40;99880.88;2104410;27;46651;-68
2022/01/09 03:41:39;;;;;;;;;1.00;1.00;;;;;9.41;60.48;99884.38;2095427;28;47334;-68
2022/01/09 03:42:40;;;;;;;;;2.00;1.33;;;;;9.41;60.60;99889.69;2094948;27;47961;-67
2022/01/09 03:43:41;;;;;;;;;0.00;0.00;;;;;9.42;61.28;99894.06;2104744;27;46406;-68
2022/01/09 03:44:41;;;;;;;;;1.67;1.67;;;;;9.42;60.62;99886.13;2104323;27;47384;-67
2022/01/09 03:45:42;;;;;;;;;1.00;1.00;;;;;9.42;60.70;99896.72;2095353;27;45783;-68
2022/01/09 03:46:43;;;;;;;;;2.67;1.00;;;;;9.42;60.71;99902.00;2095389;28;47700;-68
2022/01/09 03:47:43;;;;;;;;;1.00;1.00;;;;;9.43;60.64;99910.81;2102970;27;47291;-70
2022/01/09 03:48:44;;;;;;;;;1.67;1.67;;;;;9.42;60.86;99914.38;2104620;27;45649;-70
2022/01/09 03:49:44;;;;;;;;;0.67;0.67;;;;;9.42;61.00;99899.38;2104416;27;45518;-68
2022/01/09 03:50:50;;;;;;;;;1.00;0.00;;;;;9.44;61.00;99912.56;2095290;28;46698;-68
2022/01/09 03:51:52;;;;;;;;;0.75;0.75;;;;;9.43;60.96;99905.53;2096180;27;46947;-68
2022/01/09 03:52:53;;;;;;;;;2.00;1.00;;;;;9.42;61.07;99903.78;2103253;27;47334;-68
2022/01/09 03:53:53;;;;;;;;;0.00;0.00;;;;;9.41;61.14;99894.97;2104331;27;47339;-68
2022/01/09 03:54:55;;;;;;;;;2.33;1.00;;;;;9.42;61.06;99903.78;2104468;27;47842;-69
2022/01/09 03:55:55;;;;;;;;;1.75;1.75;;;;;9.41;61.20;99897.63;2103818;27;45664;-68
2022/01/09 03:56:56;;;;;;;;;1.00;1.00;;;;;9.41;61.01;99900.28;2095234;28;48061;-68
2022/01/09 03:57:56;;;;;;;;;2.33;1.33;;;;;9.41;61.17;99894.13;2095011;27;45932;-68
2022/01/09 03:58:57;;;;;;;;;0.00;0.00;;;;;9.40;61.12;99900.28;2094887;27;47362;-68
2022/01/09 03:59:58;;;;;;;;;0.00;0.00;;;;;9.37;61.11;99893.31;2094589;27;45848;-67
2022/01/09 04:00:58;;;;;;;;;0.00;0.00;;;;;9.36;60.94;99888.06;2094629;27;47792;-67
2022/01/09 04:01:59;;;;;;;;;2.00;0.67;;;;;9.35;61.03;99889.00;2103587;27;48068;-68
2022/01/09 04:02:59;;;;;;;;;0.00;0.00;;;;;9.33;61.19;99885.53;2103035;27;46084;-68
2022/01/09 04:04:00;;;;;;;;;0.00;0.00;;;;;9.32;61.17;99878.50;2104596;27;47020;-68
2022/01/09 04:05:01;;;;;;;;;1.00;1.00;;;;;9.30;61.12;99875.03;2104288;27;47090;-69
2022/01/09 04:06:02;;;;;;;;;1.00;1.00;;;;;9.29;61.22;99868.00;2104154;27;45424;-67
2022/01/09 04:07:03;;;;;;;;;0.00;0.00;;;;;9.26;61.25;99876.88;2103873;27;45698;-68
2022/01/09 04:08:04;;;;;;;;;0.75;0.00;;;;;9.26;61.23;99886.59;2094065;28;48100;-69
2022/01/09 04:09:17;;;;;;;;;0.00;0.00;;;;;9.24;61.10;99884.00;2088622;28;46137;-67
2022/01/09 04:10:20;;;;;;;;;1.00;0.00;;;;;9.22;61.19;99871.72;2087383;28;46984;-67
2022/01/09 04:11:23;;;;;;;;;0.00;0.00;;;;;9.22;61.21;99869.94;2087083;28;45971;-67
2022/01/09 04:12:34;;;;;;;;;0.75;0.75;;;;;9.20;61.48;99871.78;2088470;28;47679;-69
2022/01/09 04:13:36;;;;;;;;;0.00;0.00;;;;;9.21;61.20;99873.50;2094850;27;47832;-67
2022/01/09 04:14:37;;;;;;;;;1.00;1.00;;;;;9.19;61.44;99863.88;2103703;27;45575;-67
2022/01/09 04:15:38;;;;;;;;;0.00;0.00;;;;;9.17;61.38;99860.44;2103809;27;48476;-67
2022/01/09 04:16:39;;;;;;;;;1.75;1.00;;;;;9.16;61.43;99866.63;2104207;27;45887;-67
2022/01/09 04:18:02;;;;;;;;;0.00;0.00;;;;;9.16;61.39;99866.63;2103957;27;45514;-69
2022/01/09 04:19:01;;;;;;;;;0.25;0.25;;;;;9.13;61.14;99860.50;2103304;27;48185;-68
2022/01/09 04:20:02;;;;;;;;;1.67;1.00;;;;;9.14;61.47;99866.66;2095142;27;47273;-68
2022/01/09 04:21:02;;;;;;;;;0.00;0.00;;;;;9.14;61.79;99871.94;2086871;28;45462;-68
2022/01/09 04:22:03;;;;;;;;;1.00;0.00;;;;;9.13;61.31;99865.78;2086509;28;46351;-68
2022/01/09 04:23:03;;;;;;;;;0.67;0.67;;;;;9.14;61.60;99867.53;2102908;27;46378;-68
2022/01/09 04:24:04;;;;;;;;;0.00;0.00;;;;;9.14;61.57;99872.81;2103816;27;46136;-68
2022/01/09 04:25:06;;;;;;;;;0.00;0.00;;;;;9.13;61.43;99879.03;2103354;27;46440;-68
2022/01/09 04:26:06;;;;;;;;;0.75;0.75;;;;;9.12;61.35;99885.22;2095362;28;46013;-67
2022/01/09 04:27:07;;;;;;;;;0.00;0.00;;;;;9.11;61.52;99887.94;2087388;28;45774;-67
2022/01/09 04:28:08;;;;;;;;;0.67;0.67;;;;;9.11;61.62;99883.50;2095455;28;45538;-68
2022/01/09 04:29:09;;;;;;;;;1.75;0.50;;;;;9.12;61.68;99889.66;2104338;27;45564;-68
2022/01/09 04:30:10;;;;;;;;;1.67;1.00;;;;;9.10;61.43;99892.34;2103841;27;48311;-67
2022/01/09 04:31:11;;;;;;;;;1.25;0.50;;;;;9.13;61.72;99896.69;2095164;27;45821;-69
2022/01/09 04:32:12;;;;;;;;;0.33;0.33;;;;;9.13;61.71;99896.69;2094521;27;46405;-68
2022/01/09 04:33:13;;;;;;;;;1.00;1.00;;;;;9.14;61.56;99898.41;2094895;27;45659;-68
2022/01/09 04:34:13;;;;;;;;;0.25;0.25;;;;;9.13;61.62;99899.34;2095678;27;46443;-68
2022/01/09 04:35:14;;;;;;;;;0.00;0.00;;;;;9.14;61.69;99893.13;2104261;27;46501;-68
2022/01/09 04:36:14;;;;;;;;;1.00;1.00;;;;;9.13;61.54;99894.91;2104255;27;46161;-68
2022/01/09 04:37:15;;;;;;;;;1.00;1.00;;;;;9.15;61.79;99894.88;2103159;27;45337;-69
2022/01/09 04:38:16;;;;;;;;;1.00;1.00;;;;;9.15;61.78;99897.53;2102102;27;45538;-69
2022/01/09 04:39:16;;;;;;;;;1.33;1.33;;;;;9.16;61.84;99878.09;2103879;27;46621;-69
2022/01/09 04:40:19;;;;;;;;;1.00;1.00;;;;;9.16;61.53;99883.38;2104570;27;45791;-68
2022/01/09 04:41:19;;;;;;;;;1.00;1.00;;;;;9.17;61.52;99876.31;2104300;27;45696;-68
2022/01/09 04:42:24;;;;;;;;;1.67;0.00;;;;;9.18;61.62;99878.91;2103540;27;46932;-68
2022/01/09 04:43:27;;;;;;;;;2.00;2.00;;;;;9.16;61.36;99885.16;2103021;27;47139;-69
2022/01/09 04:44:27;;;;;;;;;1.00;0.50;;;;;9.16;61.59;99887.81;2103924;27;47721;-68
2022/01/09 04:45:28;;;;;;;;;0.33;0.33;;;;;9.14;61.54;99885.19;2104130;27;47919;-68
2022/01/09 04:46:39;;;;;;;;;0.25;0.25;;;;;9.16;61.36;99901.91;2095194;28;46716;-69
2022/01/09 04:47:43;;;;;;;;;0.00;0.00;;;;;9.14;61.49;99896.63;2093864;27;45969;-68
2022/01/09 04:48:45;;;;;;;;;0.75;0.75;;;;;9.13;61.47;99889.59;2103920;27;46429;-68
2022/01/09 04:49:48;;;;;;;;;3.50;0.75;;;;;9.15;61.55;99900.19;2103937;27;45988;-69
2022/01/09 04:50:51;;;;;;;;;0.25;0.25;;;;;9.14;61.66;99887.81;2095356;28;48411;-68
2022/01/09 04:51:52;;;;;;;;;1.75;1.75;;;;;9.14;61.55;99894.00;2095434;27;47147;-68
2022/01/09 04:52:59;;;;;;;;;1.00;0.00;;;;;9.16;61.39;99901.06;2103716;27;46266;-68